Global Endeavor — 3EOJ9 — position and weather

sailwx.info

Track history (hours):
 
Tides and Currents Weather Stations Pressure Air Temp Water Temp Dewpoint Dewpoint Depression Visibility Wind Speed Wind Dir Waves Ship Positions

Global Endeavor

Last reported at 2016-May-24 13:33 UTC. Time now 2016-May-24 13:53 UTC.
Position N 34°41' E 139°35'.

Length 175 m; draft 6 m.

Type: Cargo ship. MMSI: 356619000.

Date/timePositionNaut miles runAvg speedWind from/ knotsBaromVisibWave heightAir tempDewpointWater temp
2016-May-24 13:33N 34°41' E 139°35'1312.3
2016-May-24 12:32N 34°37' E 139°21'1312.6
2016-May-24 11:32N 34°31' E 139°07'1212.3
2016-May-24 10:32N 34°25' E 138°55'  
2016-May-15 15:09N 34°42' E 139°39'712.0
2016-May-15 14:32N 34°45' E 139°47'1212.2
2016-May-15 13:32N 34°50' E 140°01'1111.2
2016-May-15 12:33N 34°55' E 140°12'1311.2
2016-May-15 11:26N 35°03' E 140°25'1211.4
2016-May-15 10:25N 35°11' E 140°35'2211.4
2016-May-15 08:29N 35°28' E 140°52'1413.1
2016-May-15 07:24N 35°40' E 141°02'  
Track history (hours):
 
Tides and Currents Weather Stations Pressure Air Temp Water Temp Dewpoint Dewpoint Depression Visibility Wind Speed Wind Dir Waves Ship Positions

Global Endeavor

Last reported at 2016-May-24 13:33 UTC. Time now 2016-May-24 13:53 UTC.
Position N 34°41' E 139°35'.

Length 175 m; draft 6 m.

Type: Cargo ship. MMSI: 356619000.

Date/timePositionNaut miles runAvg speedWind from/ knotsBaromVisibWave heightAir tempDewpointWater temp
2016-May-24 13:33N 34°41' E 139°35'1312.3
2016-May-24 12:32N 34°37' E 139°21'1312.6
2016-May-24 11:32N 34°31' E 139°07'1212.3
2016-May-24 10:32N 34°25' E 138°55'  
2016-May-15 15:09N 34°42' E 139°39'712.0
2016-May-15 14:32N 34°45' E 139°47'1212.2
2016-May-15 13:32N 34°50' E 140°01'1111.2
2016-May-15 12:33N 34°55' E 140°12'1311.2
2016-May-15 11:26N 35°03' E 140°25'1211.4
2016-May-15 10:25N 35°11' E 140°35'2211.4
2016-May-15 08:29N 35°28' E 140°52'1413.1
2016-May-15 07:24N 35°40' E 141°02'  

Dump ship's entire track history